Time;durP1;ratioP1;P1;durP2;ratioP2;P2;SDS_P1;SDS_P2;PMS_P1;PMS_P2;Temp;Humidity;BMP_temperature;BMP_pressure;BME280_temperature;BME280_humidity;BME280_pressure;Samples;Min_cycle;Max_cycle;Signal;HPM_P1;HPM_P2
2022/05/13 00:00:57;;;;;;;6.70;1.63;;;12.50;99.90;;;;;;5093104;28;20558;-73
2022/05/13 00:03:22;;;;;;;3.93;1.43;;;12.50;1.00;;;;;;5074872;28;20186;-73
2022/05/13 00:05:50;;;;;;;6.57;1.87;;;12.40;1.00;;;;;;5093544;28;20174;-73
2022/05/13 00:08:16;;;;;;;6.97;1.80;;;12.50;1.00;;;;;;5075241;28;20714;-74
2022/05/13 00:10:43;;;;;;;7.83;1.90;;;12.40;1.00;;;;;;5093479;28;20635;-73
2022/05/13 00:13:09;;;;;;;7.23;2.17;;;12.40;77.60;;;;;;5093391;28;20172;-73
2022/05/13 00:15:35;;;;;;;4.93;1.97;;;12.40;99.90;;;;;;5093364;28;20169;-73
2022/05/13 00:18:01;;;;;;;5.13;1.90;;;12.40;1.00;;;;;;5093016;28;20168;-74
2022/05/13 00:20:27;;;;;;;2.67;1.50;;;12.30;75.50;;;;;;5093381;28;20175;-73
2022/05/13 00:22:55;;;;;;;8.13;1.90;;;12.30;99.90;;;;;;5093220;28;20203;-73
2022/05/13 00:25:24;;;;;;;3.67;1.67;;;12.20;99.90;;;;;;5093193;28;20179;-73
2022/05/13 00:27:50;;;;;;;5.17;2.03;;;12.20;1.00;;;;;;5093250;28;20266;-74
2022/05/13 00:30:17;;;;;;;6.77;2.13;;;12.20;1.00;;;;;;5093474;28;20703;-73
2022/05/13 00:32:44;;;;;;;4.37;1.80;;;12.20;99.90;;;;;;5074790;28;20175;-73
2022/05/13 00:35:09;;;;;;;7.73;2.30;;;12.10;99.90;;;;;;5093107;28;20615;-73
2022/05/13 00:37:35;;;;;;;6.77;2.30;;;12.00;1.00;;;;;;5093143;28;20232;-73
2022/05/13 00:40:04;;;;;;;6.07;2.30;;;12.00;1.00;;;;;;5075158;28;20262;-73
2022/05/13 00:42:29;;;;;;;5.10;2.10;;;12.00;1.00;;;;;;5093188;28;20211;-74
2022/05/13 00:44:57;;;;;;;5.10;1.63;;;12.00;1.00;;;;;;5093088;28;20638;-74
2022/05/13 00:47:22;;;;;;;8.03;1.90;;;12.00;1.00;;;;;;5092824;28;20183;-73
2022/05/13 00:49:48;;;;;;;6.33;2.00;;;11.90;99.90;;;;;;5093176;28;20168;-73
2022/05/13 00:52:14;;;;;;;4.07;2.10;;;11.90;99.90;;;;;;5092927;28;20174;-73
2022/05/13 00:54:41;;;;;;;8.90;2.50;;;11.80;99.90;;;;;;5093013;28;20674;-73
2022/05/13 00:57:08;;;;;;;7.80;2.10;;;11.80;99.90;;;;;;5058341;28;20605;-72
2022/05/13 00:59:37;;;;;;;7.20;2.30;;;11.80;1.00;;;;;;5093177;28;20168;-73
2022/05/13 01:02:03;;;;;;;8.20;2.30;;;11.80;1.00;;;;;;5052512;28;20213;-73
2022/05/13 01:04:30;;;;;;;8.73;2.50;;;11.80;1.00;;;;;;5052787;28;20165;-73
2022/05/13 01:07:00;;;;;;;12.30;2.43;;;11.80;1.00;;;;;;5052849;28;20219;-73
2022/05/13 01:09:28;;;;;;;9.37;2.23;;;11.80;1.00;;;;;;5052666;28;20168;-73
2022/05/13 01:11:59;;;;;;;7.60;2.13;;;11.80;1.00;;;;;;5052679;28;20199;-74
2022/05/13 01:14:48;;;;;;;8.60;2.70;;;11.70;1.00;;;;;;5052690;28;20165;-74
2022/05/13 01:20:12;;;;;;;8.40;2.40;;;11.60;1.00;;;;;;5052840;28;20240;-74
2022/05/13 01:22:42;;;;;;;7.90;2.57;;;11.60;1.00;;;;;;5051241;28;20231;-74
2022/05/13 01:25:09;;;;;;;9.07;2.33;;;11.50;1.00;;;;;;5052824;28;20223;-73
2022/05/13 01:27:34;;;;;;;8.90;2.70;;;11.40;1.00;;;;;;5052695;28;20184;-74
2022/05/13 01:30:00;;;;;;;8.23;2.87;;;11.40;1.00;;;;;;5052205;28;20178;-73
2022/05/13 01:32:25;;;;;;;7.27;2.57;;;11.40;1.00;;;;;;5051493;28;20181;-73
2022/05/13 01:34:51;;;;;;;7.93;2.33;;;11.50;1.00;;;;;;5051329;28;20174;-73
2022/05/13 01:37:16;;;;;;;9.40;2.70;;;11.40;1.00;;;;;;5052486;28;20176;-74
2022/05/13 01:39:42;;;;;;;7.40;2.40;;;11.40;1.00;;;;;;5052661;28;20542;-74
2022/05/13 01:42:08;;;;;;;6.67;2.40;;;11.40;1.00;;;;;;5051177;28;20217;-73
2022/05/13 01:44:34;;;;;;;14.93;3.13;;;11.40;1.00;;;;;;5052176;28;20180;-73
2022/05/13 01:46:59;;;;;;;8.40;2.40;;;11.40;1.00;;;;;;5051133;28;20550;-74
2022/05/13 01:49:25;;;;;;;8.20;2.30;;;11.30;1.00;;;;;;5054144;28;20281;-73
2022/05/13 01:51:51;;;;;;;8.63;2.23;;;11.30;1.00;;;;;;5054948;28;20589;-73
2022/05/13 01:54:16;;;;;;;9.63;2.63;;;11.20;1.00;;;;;;5055992;28;20177;-73
2022/05/13 01:56:42;;;;;;;9.07;2.33;;;11.20;1.00;;;;;;5055842;28;20253;-74
2022/05/13 01:59:07;;;;;;;6.87;2.57;;;11.30;1.00;;;;;;5055495;28;20211;-74
2022/05/13 02:01:33;;;;;;;7.80;2.47;;;11.20;1.00;;;;;;5088335;28;20223;-73
2022/05/13 02:03:58;;;;;;;9.83;2.63;;;11.20;1.00;;;;;;5096198;28;20554;-73
2022/05/13 02:06:26;;;;;;;5.53;2.40;;;11.10;1.00;;;;;;5095783;28;20176;-73
2022/05/13 02:08:56;;;;;;;6.67;2.23;;;11.20;1.00;;;;;;5096103;28;20580;-73
2022/05/13 02:11:23;;;;;;;7.43;2.37;;;11.20;1.00;;;;;;5095877;28;20198;-74
2022/05/13 02:13:51;;;;;;;8.93;2.57;;;11.10;1.00;;;;;;5095439;28;20179;-74
2022/05/13 02:16:17;;;;;;;7.57;2.60;;;11.10;1.00;;;;;;5095916;28;20164;-74
2022/05/13 02:18:42;;;;;;;10.17;2.50;;;11.10;1.00;;;;;;5096220;28;20179;-73
2022/05/13 02:21:08;;;;;;;9.17;2.50;;;11.00;1.00;;;;;;5095680;28;20219;-75
2022/05/13 02:23:34;;;;;;;8.87;2.57;;;11.00;1.00;;;;;;5077595;28;20646;-73
2022/05/13 02:26:03;;;;;;;7.77;2.80;;;10.90;1.00;;;;;;5095684;28;20171;-74
2022/05/13 02:28:30;;;;;;;7.40;2.67;;;10.90;1.00;;;;;;5095254;28;20192;-72
2022/05/13 02:30:56;;;;;;;7.90;2.50;;;10.90;1.00;;;;;;5095634;28;20167;-73
2022/05/13 02:33:22;;;;;;;7.27;2.37;;;10.90;1.00;;;;;;5077662;28;20547;-73
2022/05/13 02:35:48;;;;;;;11.80;2.77;;;10.90;1.00;;;;;;5095360;28;20687;-73
2022/05/13 02:38:15;;;;;;;6.87;2.60;;;10.90;1.00;;;;;;5095409;28;20580;-74
2022/05/13 02:43:26;;;;;;;12.73;3.53;;;10.90;1.00;;;;;;5095091;28;20175;-74
2022/05/13 02:45:52;;;;;;;10.60;2.80;;;10.80;1.00;;;;;;5077238;28;20176;-74
2022/05/13 02:48:17;;;;;;;8.23;3.07;;;10.90;1.00;;;;;;5095312;28;20171;-74
2022/05/13 02:50:43;;;;;;;12.07;2.73;;;10.70;1.00;;;;;;5095356;28;20247;-74
2022/05/13 02:53:09;;;;;;;7.53;2.93;;;10.70;1.00;;;;;;5095102;28;20168;-73
2022/05/13 02:55:34;;;;;;;7.03;2.80;;;10.70;1.00;;;;;;5094912;28;20204;-74
2022/05/13 02:58:00;;;;;;;10.07;3.00;;;10.70;1.00;;;;;;5094583;28;20624;-73
2022/05/13 03:00:26;;;;;;;7.20;2.93;;;10.80;1.00;;;;;;5093710;28;20691;-73
2022/05/13 03:02:52;;;;;;;7.90;2.60;;;10.80;1.00;;;;;;5076948;28;20215;-73
2022/05/13 03:05:18;;;;;;;11.83;3.07;;;10.70;1.00;;;;;;5094763;28;20220;-73
2022/05/13 03:07:43;;;;;;;11.00;3.13;;;10.70;1.00;;;;;;5094742;28;20173;-73
2022/05/13 03:10:09;;;;;;;13.57;3.07;;;10.70;2.90;;;;;;5076618;28;20590;-73
2022/05/13 03:12:35;;;;;;;9.37;3.10;;;10.70;5.00;;;;;;5076050;28;20194;-74
2022/05/13 03:15:02;;;;;;;10.87;3.03;;;10.70;7.90;;;;;;5094726;28;20642;-73
2022/05/13 03:17:28;;;;;;;7.40;3.30;;;10.60;9.60;;;;;;5094500;28;20258;-74
2022/05/13 03:19:54;;;;;;;6.90;2.90;;;10.60;10.70;;;;;;5094155;28;20634;-74
2022/05/13 03:22:19;;;;;;;9.80;3.43;;;10.60;14.80;;;;;;5094129;28;20235;-73
2022/05/13 03:24:45;;;;;;;7.87;3.10;;;10.70;17.30;;;;;;5094313;28;20179;-73
2022/05/13 03:27:11;;;;;;;6.87;3.30;;;10.70;14.90;;;;;;5094083;28;20175;-73
2022/05/13 03:29:36;;;;;;;11.60;3.60;;;10.70;13.60;;;;;;5094425;28;20167;-72
2022/05/13 03:32:05;;;;;;;13.07;3.77;;;10.80;13.70;;;;;;5093995;28;20176;-72
2022/05/13 03:34:31;;;;;;;12.80;3.37;;;10.80;7.00;;;;;;5076310;28;20245;-71
2022/05/13 03:36:57;;;;;;;13.27;3.53;;;10.90;6.70;;;;;;5075908;28;20204;-72
2022/05/13 03:39:22;;;;;;;7.90;2.87;;;10.90;5.90;;;;;;5093790;28;20255;-72
2022/05/13 03:41:48;;;;;;;9.17;3.63;;;10.90;2.90;;;;;;5075117;28;20298;-73
2022/05/13 03:44:14;;;;;;;10.57;3.43;;;10.90;5.40;;;;;;5093995;28;20168;-72
2022/05/13 03:46:40;;;;;;;12.97;3.03;;;10.90;7.90;;;;;;5093995;28;20655;-73
2022/05/13 03:49:05;;;;;;;13.07;3.47;;;10.80;14.20;;;;;;5093819;28;20535;-73
2022/05/13 03:51:32;;;;;;;14.90;3.47;;;10.70;18.60;;;;;;5093573;28;20516;-72
2022/05/13 03:53:58;;;;;;;13.50;3.67;;;10.70;22.30;;;;;;5092916;28;20498;-72
2022/05/13 03:56:24;;;;;;;11.30;4.00;;;10.70;23.10;;;;;;5093255;28;20254;-73
2022/05/13 03:58:50;;;;;;;13.43;3.60;;;10.70;24.60;;;;;;5093957;28;20252;-74
2022/05/13 04:01:16;;;;;;;11.10;3.67;;;10.70;25.80;;;;;;5093214;28;20231;-73
2022/05/13 04:03:42;;;;;;;15.87;4.43;;;10.70;26.00;;;;;;5074929;28;20301;-73
2022/05/13 04:08:58;;;;;;;14.90;3.87;;;10.70;30.40;;;;;;5093509;28;20356;-72
2022/05/13 04:11:33;;;;;;;18.67;4.23;;;10.70;25.80;;;;;;5093047;28;20195;-73
2022/05/13 04:16:43;;;;;;;10.63;3.67;;;10.70;32.30;;;;;;5093461;28;20188;-73
2022/05/13 04:19:10;;;;;;;16.60;4.43;;;10.70;36.60;;;;;;5093357;28;20168;-72
2022/05/13 04:21:38;;;;;;;13.40;4.47;;;10.70;36.10;;;;;;5092822;28;20222;-74
2022/05/13 04:24:07;;;;;;;12.27;4.30;;;10.70;38.50;;;;;;5093011;28;20267;-73
2022/05/13 04:26:33;;;;;;;10.33;4.10;;;10.70;40.20;;;;;;5092639;28;20220;-73
2022/05/13 04:29:00;;;;;;;18.13;4.50;;;10.80;38.30;;;;;;5093326;28;20176;-73
2022/05/13 04:31:31;;;;;;;11.63;4.80;;;10.80;36.50;;;;;;5092522;28;20372;-73
2022/05/13 04:33:58;;;;;;;13.10;4.43;;;10.80;35.80;;;;;;5093267;28;20232;-73
2022/05/13 04:36:24;;;;;;;11.23;4.50;;;10.80;34.90;;;;;;5074516;28;20175;-73
2022/05/13 04:38:51;;;;;;;14.53;4.50;;;10.90;35.10;;;;;;5092297;28;20168;-73
2022/05/13 04:44:02;;;;;;;15.17;5.17;;;11.10;27.30;;;;;;5093183;28;20175;-73
2022/05/13 04:46:27;;;;;;;13.83;4.53;;;11.10;23.50;;;;;;5092649;28;20543;-73
2022/05/13 04:48:53;;;;;;;12.60;4.20;;;11.10;23.50;;;;;;5093149;28;20172;-73
2022/05/13 04:51:20;;;;;;;14.83;4.60;;;11.20;21.60;;;;;;5092071;28;20258;-73
2022/05/13 04:53:48;;;;;;;18.73;4.93;;;11.20;17.50;;;;;;5091977;28;20286;-72
2022/05/13 04:56:14;;;;;;;13.97;4.83;;;11.20;16.90;;;;;;5092493;28;20654;-73
2022/05/13 04:58:39;;;;;;;14.30;5.33;;;11.10;19.50;;;;;;5092618;28;20164;-72
2022/05/13 05:01:07;;;;;;;11.20;4.90;;;11.20;21.20;;;;;;5091766;28;20235;-73
2022/05/13 05:03:35;;;;;;;15.43;4.57;;;11.30;21.00;;;;;;5092641;28;20180;-73
2022/05/13 05:06:02;;;;;;;16.00;4.90;;;11.40;14.40;;;;;;5092515;28;20183;-72
2022/05/13 05:08:29;;;;;;;22.67;4.87;;;11.50;12.40;;;;;;5091927;28;20182;-73
2022/05/13 05:10:55;;;;;;;9.67;4.20;;;11.60;1.60;;;;;;5091843;28;20241;-72
2022/05/13 05:13:28;;;;;;;8.33;3.83;;;11.80;1.00;;;;;;5092647;28;20199;-72
2022/05/13 05:15:54;;;;;;;11.77;4.37;;;11.90;1.00;;;;;;5091713;28;20172;-72
2022/05/13 05:18:20;;;;;;;12.13;4.50;;;12.20;1.00;;;;;;5092214;28;20225;-73
2022/05/13 05:20:47;;;;;;;9.90;4.60;;;12.30;1.00;;;;;;5092131;28;20255;-73
2022/05/13 05:23:22;;;;;;;16.77;4.20;;;12.40;1.00;;;;;;5093667;28;20179;-73
2022/05/13 05:25:48;;;;;;;15.33;4.83;;;12.40;1.00;;;;;;5095758;28;20175;-72
2022/05/13 05:28:14;;;;;;;13.30;4.47;;;12.70;1.00;;;;;;5094898;28;20228;-73
2022/05/13 05:30:41;;;;;;;11.70;3.90;;;12.80;1.00;;;;;;5095604;28;20168;-73
2022/05/13 05:33:07;;;;;;;14.17;4.47;;;12.80;1.00;;;;;;5095095;28;20242;-73
2022/05/13 05:35:33;;;;;;;14.47;4.20;;;13.00;1.00;;;;;;5095248;28;20187;-73
2022/05/13 05:37:59;;;;;;;12.87;4.47;;;13.20;1.00;;;;;;5095214;28;20183;-72
2022/05/13 05:40:25;;;;;;;14.10;4.30;;;13.20;1.00;;;;;;5094943;28;20175;-73
2022/05/13 05:42:50;;;;;;;11.90;4.73;;;13.20;1.00;;;;;;5095430;28;20578;-74
2022/05/13 05:45:19;;;;;;;18.27;4.70;;;13.60;1.00;;;;;;5095088;28;20180;-73
2022/05/13 05:47:45;;;;;;;11.37;3.90;;;14.10;1.00;;;;;;5094949;28;20225;-73
2022/05/13 05:50:14;;;;;;;12.70;4.30;;;14.50;1.00;;;;;;5095098;28;20164;-74
2022/05/13 05:52:40;;;;;;;14.93;4.23;;;15.10;1.00;;;;;;5094830;28;20254;-72
2022/05/13 05:58:11;;;;;;;10.97;3.90;;;15.80;28.20;;;;;;5095196;28;20206;-74
2022/05/13 06:00:41;;;;;;;11.73;3.90;;;15.80;99.90;;;;;;5095148;28;20247;-74
2022/05/13 06:03:07;;;;;;;11.03;4.27;;;15.80;1.00;;;;;;5094400;28;20691;-74
2022/05/13 06:05:33;;;;;;;12.07;4.00;;;16.30;1.00;;;;;;5094736;28;20182;-74
2022/05/13 06:08:01;;;;;;;11.60;4.13;;;16.90;99.90;;;;;;5094586;28;20206;-75
2022/05/13 06:10:28;;;;;;;10.03;4.03;;;17.00;1.00;;;;;;5095494;28;20225;-75
2022/05/13 06:12:54;;;;;;;11.17;4.10;;;16.90;1.00;;;;;;5093886;28;20211;-75
2022/05/13 06:15:20;;;;;;;14.57;4.20;;;16.90;1.00;;;;;;5094956;28;20198;-74
2022/05/13 06:17:55;;;;;;;13.53;4.47;;;17.30;1.00;;;;;;5094387;28;20168;-74
2022/05/13 06:20:28;;;;;;;15.10;4.33;;;17.40;99.90;;;;;;5094163;28;20221;-75
2022/05/13 06:22:53;;;;;;;15.93;4.53;;;17.30;99.90;;;;;;5093884;28;20211;-74
2022/05/13 06:25:20;;;;;;;10.40;4.53;;;17.70;99.90;;;;;;5094510;28;20649;-75
2022/05/13 06:27:47;;;;;;;10.80;4.13;;;17.90;1.00;;;;;;5094436;28;20172;-75
2022/05/13 06:30:17;;;;;;;13.70;4.40;;;17.90;1.00;;;;;;5075867;28;20180;-74
2022/05/13 06:32:43;;;;;;;17.27;4.73;;;18.00;1.00;;;;;;5094251;28;20187;-75
2022/05/13 06:35:10;;;;;;;16.07;4.77;;;17.70;1.00;;;;;;5094191;28;20164;-74
2022/05/13 06:37:36;;;;;;;12.60;4.27;;;17.70;1.00;;;;;;5093817;28;20176;-75
2022/05/13 06:40:03;;;;;;;12.87;4.50;;;18.10;1.00;;;;;;5093575;28;20477;-76
2022/05/13 06:42:28;;;;;;;9.93;4.03;;;18.70;1.00;;;;;;5075543;28;20216;-75
2022/05/13 06:44:54;;;;;;;9.67;4.30;;;18.70;99.90;;;;;;5075911;28;20179;-75
2022/05/13 06:47:21;;;;;;;14.90;4.40;;;19.20;1.00;;;;;;5093227;28;20182;-76
2022/05/13 06:49:46;;;;;;;10.27;4.00;;;19.40;1.00;;;;;;5094186;28;20191;-76
2022/05/13 06:52:13;;;;;;;14.00;4.00;;;19.60;1.00;;;;;;5075831;28;20583;-76
2022/05/13 06:54:40;;;;;;;12.30;3.88;;;20.00;1.00;;;;;;5072313;28;20175;-76
2022/05/13 06:57:07;;;;;;;9.80;4.13;;;20.10;1.00;;;;;;5102189;28;20312;-76
2022/05/13 06:59:32;;;;;;;12.32;4.25;;;20.40;1.00;;;;;;5112544;28;20175;-75
2022/05/13 07:01:58;;;;;;;8.52;3.75;;;21.00;1.00;;;;;;5101805;28;20214;-75
2022/05/13 07:04:24;;;;;;;13.45;4.30;;;21.70;99.90;;;;;;5101765;27;20174;-75
2022/05/13 07:06:50;;;;;;;8.95;3.78;;;22.30;99.90;;;;;;5113398;28;20518;-75
2022/05/13 07:09:16;;;;;;;13.15;4.55;;;22.00;99.90;;;;;;5113981;28;20171;-75
2022/05/13 07:11:42;;;;;;;8.90;3.35;;;21.90;99.90;;;;;;5112167;28;20268;-76
2022/05/13 07:14:07;;;;;;;11.52;4.20;;;22.60;99.90;;;;;;5110930;28;20178;-77
2022/05/13 07:16:33;;;;;;;9.07;3.90;;;23.00;99.90;;;;;;5113862;28;20250;-76
2022/05/13 07:19:00;;;;;;;12.60;4.00;;;23.80;99.90;;;;;;5112835;28;20172;-76
2022/05/13 07:21:25;;;;;;;9.52;4.45;;;24.30;99.90;;;;;;5094857;28;20225;-76
2022/05/13 07:23:51;;;;;;;8.30;3.80;;;24.10;99.90;;;;;;5113998;28;20252;-76
2022/05/13 07:26:17;;;;;;;10.80;3.90;;;23.40;99.90;;;;;;5113596;28;20175;-77
2022/05/13 07:28:42;;;;;;;7.15;3.25;;;23.60;99.90;;;;;;5113805;28;20179;-77
2022/05/13 07:31:08;;;;;;;7.45;3.42;;;23.70;99.90;;;;;;5113301;28;20486;-78
2022/05/13 07:33:34;;;;;;;8.30;3.60;;;24.40;99.90;;;;;;5112261;28;20195;-77
2022/05/13 07:36:00;;;;;;;9.70;3.55;;;25.50;99.90;;;;;;5113127;28;20625;-77
2022/05/13 07:38:27;;;;;;;8.88;3.53;;;24.90;99.90;;;;;;5113795;28;20171;-77
2022/05/13 07:43:37;;;;;;;8.98;2.90;;;25.50;99.90;;;;;;5093272;28;20233;-76
2022/05/13 07:46:03;;;;;;;12.35;3.50;;;25.60;99.90;;;;;;5092083;28;20176;-77
2022/05/13 07:48:29;;;;;;;7.95;2.80;;;26.10;99.90;;;;;;5074977;28;20278;-76
2022/05/13 07:50:54;;;;;;;10.98;3.47;;;26.70;99.90;;;;;;5100694;28;20262;-75
2022/05/13 07:53:20;;;;;;;9.73;3.08;;;26.70;99.90;;;;;;5095040;28;20186;-76
2022/05/13 07:55:46;;;;;;;8.10;2.80;;;26.30;99.90;;;;;;5113375;28;20292;-76
2022/05/13 07:58:11;;;;;;;10.57;2.95;;;26.10;99.90;;;;;;5112684;28;20171;-77
2022/05/13 08:00:38;;;;;;;11.50;3.03;;;25.80;99.90;;;;;;5112032;28;20695;-77
2022/05/13 08:03:12;;;;;;;4.70;2.97;;;25.60;99.90;;;;;;5113322;28;20219;-78
2022/05/13 08:05:42;;;;;;;8.18;2.72;;;27.40;99.90;;;;;;5112035;28;20166;-77
2022/05/13 08:08:17;;;;;;;8.52;2.97;;;27.40;99.90;;;;;;5112340;28;20199;-78
2022/05/13 08:10:54;;;;;;;10.30;3.28;;;28.20;99.90;;;;;;5113004;28;20209;-78
2022/05/13 08:13:21;;;;;;;5.25;2.50;;;28.70;99.90;;;;;;5113054;28;20194;-78
2022/05/13 08:15:47;;;;;;;7.53;2.97;;;29.10;91.60;;;;;;5112566;28;20178;-78
2022/05/13 08:18:14;;;;;;;6.90;2.90;;;28.90;85.10;;;;;;5111985;28;20699;-78
2022/05/13 08:20:40;;;;;;;6.90;2.85;;;28.90;73.70;;;;;;5112611;28;20641;-78
2022/05/13 08:23:06;;;;;;;7.03;2.75;;;29.10;74.30;;;;;;5112662;28;20206;-78
2022/05/13 08:25:32;;;;;;;9.63;2.92;;;29.40;61.40;;;;;;5112232;28;20167;-78
2022/05/13 08:27:58;;;;;;;6.53;2.85;;;29.20;59.90;;;;;;5113048;28;20194;-78
2022/05/13 08:30:25;;;;;;;5.85;2.78;;;29.80;54.70;;;;;;5112151;28;20638;-78
2022/05/13 08:32:51;;;;;;;6.18;2.45;;;30.00;51.20;;;;;;5112522;28;20186;-78
2022/05/13 08:35:17;;;;;;;4.10;2.33;;;29.00;44.70;;;;;;5112470;28;20178;-79
2022/05/13 08:37:52;;;;;;;5.05;2.25;;;29.30;46.80;;;;;;5112712;28;20187;-77
2022/05/13 08:40:52;;;;;;;4.45;2.38;;;29.60;45.60;;;;;;5112459;28;20208;-77
2022/05/13 08:43:26;;;;;;;6.45;2.08;;;28.90;45.50;;;;;;5112453;28;20187;-76
2022/05/13 08:46:13;;;;;;;8.68;4.90;;;28.40;45.20;;;;;;5112518;28;20231;-77
2022/05/13 08:49:15;;;;;;;7.72;2.22;;;27.30;49.00;;;;;;5098494;28;20167;-77
2022/05/13 08:51:59;;;;;;;9.10;2.47;;;28.00;46.30;;;;;;5094275;28;20171;-77
2022/05/13 08:54:30;;;;;;;6.15;2.13;;;28.20;44.10;;;;;;5111654;28;20167;-77
2022/05/13 08:57:00;;;;;;;4.85;2.20;;;29.40;38.40;;;;;;5111748;28;20574;-78
2022/05/13 08:59:42;;;;;;;6.13;2.05;;;29.70;32.10;;;;;;5114653;28;20171;-77
2022/05/13 09:02:17;;;;;;;4.30;2.17;;;27.20;35.80;;;;;;5115510;28;20230;-77
2022/05/13 09:05:02;;;;;;;5.03;1.88;;;25.80;45.70;;;;;;5116410;28;20162;-77
2022/05/13 09:07:27;;;;;;;6.13;2.80;;;25.50;49.60;;;;;;5098197;28;20685;-77
2022/05/13 09:09:58;;;;;;;6.68;2.35;;;25.30;51.80;;;;;;5115995;28;20261;-77
2022/05/13 09:12:29;;;;;;;5.97;2.42;;;25.90;48.60;;;;;;5099650;28;20191;-77
2022/05/13 09:15:02;;;;;;;8.13;2.63;;;24.90;55.30;;;;;;5116133;28;20630;-77
2022/05/13 09:17:33;;;;;;;7.65;2.10;;;24.00;59.30;;;;;;5116089;28;20224;-77
2022/05/13 09:20:04;;;;;;;6.13;2.35;;;23.40;68.90;;;;;;5116164;28;20174;-77
2022/05/13 09:22:34;;;;;;;4.85;2.10;;;22.60;81.20;;;;;;5116125;28;20662;-77
2022/05/13 09:25:00;;;;;;;4.90;1.90;;;22.50;84.80;;;;;;5116664;28;20198;-77
2022/05/13 09:27:26;;;;;;;5.85;2.08;;;22.00;90.10;;;;;;5115704;28;20646;-76
2022/05/13 09:29:51;;;;;;;9.07;2.38;;;22.00;93.70;;;;;;5115938;28;20227;-77
2022/05/13 09:32:29;;;;;;;8.27;2.33;;;22.10;99.90;;;;;;5115140;28;20303;-77
2022/05/13 09:35:12;;;;;;;4.45;2.15;;;21.90;99.90;;;;;;5116196;28;20167;-76
2022/05/13 09:37:44;;;;;;;7.32;2.20;;;21.30;99.90;;;;;;5115437;28;20225;-77
2022/05/13 09:40:15;;;;;;;3.55;2.10;;;21.10;99.90;;;;;;5115649;28;20189;-78
2022/05/13 09:42:43;;;;;;;7.65;2.22;;;21.70;99.90;;;;;;5115575;28;20203;-76
2022/05/13 09:45:31;;;;;;;6.18;2.08;;;22.30;99.90;;;;;;5097303;28;20284;-77
2022/05/13 09:48:06;;;;;;;5.50;2.05;;;22.90;99.90;;;;;;5115524;28;20174;-77
2022/05/13 09:50:44;;;;;;;4.75;2.25;;;22.70;99.90;;;;;;5115267;28;20179;-74
2022/05/13 09:53:30;;;;;;;4.82;2.10;;;22.40;99.90;;;;;;5115968;28;20176;-74
2022/05/13 09:55:58;;;;;;;5.75;2.08;;;22.00;99.90;;;;;;5115755;28;20250;-74
2022/05/13 09:58:32;;;;;;;5.45;2.00;;;22.10;99.90;;;;;;5115621;28;20243;-73
2022/05/13 10:01:13;;;;;;;8.13;2.35;;;21.80;99.90;;;;;;5115482;28;20316;-74
2022/05/13 10:03:40;;;;;;;8.00;2.30;;;21.20;99.90;;;;;;5115366;28;20171;-73
2022/05/13 10:06:08;;;;;;;9.77;2.30;;;21.20;99.90;;;;;;5115029;28;20163;-74
2022/05/13 10:08:37;;;;;;;5.95;2.00;;;20.90;99.90;;;;;;5115184;28;20654;-73
2022/05/13 10:14:06;;;;;;;5.32;2.10;;;20.20;99.90;;;;;;5115613;28;20259;-72
2022/05/13 10:16:34;;;;;;;5.40;1.95;;;20.10;99.90;;;;;;5115085;28;20307;-73
2022/05/13 10:19:24;;;;;;;6.43;3.28;;;20.50;99.90;;;;;;5114948;28;20268;-73
2022/05/13 10:22:11;;;;;;;5.05;1.85;;;21.10;99.90;;;;;;5114422;28;20206;-74
2022/05/13 10:25:00;;;;;;;6.40;2.08;;;21.80;99.90;;;;;;5114757;28;20273;-73
2022/05/13 10:27:35;;;;;;;3.92;1.85;;;22.00;99.90;;;;;;5095861;28;20206;-73
2022/05/13 10:30:20;;;;;;;5.82;2.10;;;22.30;99.90;;;;;;5115921;28;20586;-74
2022/05/13 10:32:59;;;;;;;9.73;2.28;;;21.90;99.90;;;;;;5115007;28;20179;-74
2022/05/13 10:35:32;;;;;;;8.40;2.05;;;22.10;99.90;;;;;;5114788;28;20220;-74
2022/05/13 10:38:23;;;;;;;12.05;3.10;;;22.20;99.90;;;;;;5114952;28;20250;-74
2022/05/13 10:40:49;;;;;;;8.43;2.40;;;22.20;99.90;;;;;;5114424;28;20163;-74
2022/05/13 10:43:28;;;;;;;9.85;2.25;;;21.80;99.90;;;;;;5115206;28;20658;-74
2022/05/13 10:46:05;;;;;;;5.78;1.90;;;21.50;99.90;;;;;;5114843;28;20163;-74
2022/05/13 10:48:31;;;;;;;5.30;1.98;;;20.90;99.90;;;;;;5113872;28;20163;-75
2022/05/13 10:51:24;;;;;;;7.72;2.17;;;20.70;99.90;;;;;;5114749;28;20675;-74
2022/05/13 10:54:08;;;;;;;7.80;2.33;;;21.00;99.90;;;;;;5114684;28;20171;-74
2022/05/13 10:56:57;;;;;;;6.63;2.45;;;21.20;99.90;;;;;;5114371;28;20169;-74
2022/05/13 10:59:45;;;;;;;9.15;2.05;;;21.30;99.90;;;;;;5096325;28;20227;-74
2022/05/13 11:02:44;;;;;;;8.15;1.80;;;21.40;99.90;;;;;;5113465;28;20219;-74
2022/05/13 11:05:18;;;;;;;3.75;2.08;;;21.40;99.90;;;;;;5095830;28;20523;-74
2022/05/13 11:07:50;;;;;;;4.60;1.67;;;21.50;99.90;;;;;;5115067;28;20174;-73
2022/05/13 11:10:50;;;;;;;4.38;2.50;;;20.90;99.90;;;;;;5114012;28;20187;-73
2022/05/13 11:13:34;;;;;;;7.07;1.95;;;20.60;99.90;;;;;;5096423;28;20258;-74
2022/05/13 11:16:28;;;;;;;5.63;2.25;;;20.80;99.90;;;;;;5113908;28;20167;-73
2022/05/13 11:19:00;;;;;;;8.77;2.20;;;20.80;99.90;;;;;;5113915;28;20168;-73
2022/05/13 11:21:38;;;;;;;6.72;2.05;;;21.10;99.90;;;;;;5104654;28;20214;-75
2022/05/13 11:27:28;;;;;;;7.53;2.00;;;21.40;99.90;;;;;;5111903;28;20722;-75
2022/05/13 11:30:12;;;;;;;7.30;2.78;;;20.80;99.90;;;;;;5102120;28;20163;-75
2022/05/13 11:33:01;;;;;;;10.90;2.40;;;20.70;99.90;;;;;;5113026;28;20163;-74
2022/05/13 11:35:40;;;;;;;4.47;1.90;;;20.80;99.90;;;;;;5109776;28;20226;-75
2022/05/13 11:38:16;;;;;;;5.53;2.20;;;21.20;99.90;;;;;;5112212;28;20178;-75
2022/05/13 11:41:03;;;;;;;6.68;2.30;;;21.90;99.90;;;;;;5112799;28;20256;-76
2022/05/13 11:43:34;;;;;;;4.93;2.15;;;22.70;99.90;;;;;;5110523;28;20176;-76
2022/05/13 11:46:39;;;;;;;5.03;2.05;;;22.80;99.90;;;;;;5113079;28;20171;-75
2022/05/13 11:49:26;;;;;;;4.97;1.95;;;22.40;99.90;;;;;;5112593;28;20174;-75
2022/05/13 11:51:53;;;;;;;4.72;1.77;;;22.10;99.90;;;;;;5081197;28;20167;-77
2022/05/13 11:54:22;;;;;;;9.50;2.30;;;22.40;99.90;;;;;;5111577;28;20232;-76
2022/05/13 11:56:48;;;;;;;5.40;2.15;;;22.50;99.90;;;;;;5111815;28;20585;-76
2022/05/13 11:59:26;;;;;;;3.28;1.80;;;22.30;99.90;;;;;;5111556;28;20642;-75
2022/05/13 12:02:05;;;;;;;6.05;2.08;;;21.70;99.90;;;;;;5112782;28;20261;-76
2022/05/13 12:04:33;;;;;;;5.22;1.92;;;22.00;99.90;;;;;;5101100;28;20205;-75
2022/05/13 12:07:20;;;;;;;6.53;1.85;;;21.90;99.90;;;;;;5108172;28;20182;-75
2022/05/13 12:09:48;;;;;;;4.85;2.00;;;21.90;99.90;;;;;;5110383;28;20202;-74
2022/05/13 12:12:46;;;;;;;5.35;1.80;;;21.70;99.90;;;;;;5112227;28;20191;-75
2022/05/13 12:15:49;;;;;;;7.47;2.30;;;21.50;99.90;;;;;;5112087;28;20674;-75
2022/05/13 12:18:42;;;;;;;5.13;2.17;;;21.40;99.90;;;;;;5102405;28;20283;-77
2022/05/13 12:21:25;;;;;;;4.65;1.98;;;21.80;99.90;;;;;;5111657;28;20182;-76
2022/05/13 12:24:09;;;;;;;6.63;2.05;;;21.90;99.90;;;;;;5112007;28;20224;-75
2022/05/13 12:27:03;;;;;;;6.28;2.08;;;21.90;99.90;;;;;;5112440;28;20622;-76
2022/05/13 12:29:32;;;;;;;4.78;1.73;;;21.90;99.90;;;;;;5107815;28;20220;-78
2022/05/13 12:31:57;;;;;;;5.85;1.90;;;21.60;99.90;;;;;;5111540;28;20156;-76
2022/05/13 12:37:35;;;;;;;6.65;1.98;;;21.10;99.90;;;;;;5110668;28;20182;-75
2022/05/13 12:40:00;;;;;;;7.30;2.00;;;21.20;99.90;;;;;;5111737;28;20179;-76
2022/05/13 12:42:44;;;;;;;4.35;1.67;;;21.30;99.90;;;;;;5111481;28;20206;-76
2022/05/13 12:45:39;;;;;;;7.65;2.05;;;21.30;99.90;;;;;;5112047;28;20642;-76
2022/05/13 12:48:06;;;;;;;6.80;1.98;;;21.10;99.90;;;;;;4987844;28;20187;-76
2022/05/13 12:51:13;;;;;;;6.30;2.13;;;21.40;99.90;;;;;;4990233;28;20191;-77
2022/05/13 12:53:50;;;;;;;5.35;1.88;;;21.50;99.90;;;;;;4989686;28;20630;-77
2022/05/13 12:56:34;;;;;;;4.78;2.17;;;21.40;99.90;;;;;;4980101;28;20176;-76
2022/05/13 12:59:06;;;;;;;6.18;2.45;;;21.50;99.90;;;;;;4986632;28;20218;-76
2022/05/13 13:01:32;;;;;;;5.15;1.85;;;21.70;99.90;;;;;;4974400;28;20226;-76
2022/05/13 13:03:59;;;;;;;5.45;1.90;;;21.80;99.90;;;;;;4976267;28;20175;-76
2022/05/13 13:06:37;;;;;;;6.10;1.90;;;21.20;99.90;;;;;;4980770;28;20183;-76
2022/05/13 13:09:03;;;;;;;4.90;2.20;;;21.20;99.90;;;;;;4973793;28;20183;-75
2022/05/13 13:11:43;;;;;;;8.43;2.33;;;21.50;99.90;;;;;;4969510;28;20215;-76
2022/05/13 13:14:39;;;;;;;4.15;1.95;;;21.70;99.90;;;;;;4980001;28;20263;-76
2022/05/13 13:17:19;;;;;;;7.28;2.05;;;21.80;99.90;;;;;;4973285;28;20714;-76
2022/05/13 13:19:48;;;;;;;6.45;2.08;;;21.40;99.90;;;;;;4983093;28;20210;-76
2022/05/13 13:22:20;;;;;;;10.75;2.63;;;21.00;99.90;;;;;;4980097;28;20751;-76
2022/05/13 13:24:46;;;;;;;5.90;1.80;;;20.80;99.90;;;;;;5018009;28;20562;-77
2022/05/13 13:27:21;;;;;;;4.97;1.88;;;20.90;99.90;;;;;;5090914;28;20175;-76
2022/05/13 13:29:49;;;;;;;7.03;2.00;;;21.10;99.90;;;;;;5091257;28;20658;-77
2022/05/13 13:32:18;;;;;;;6.75;2.03;;;21.30;99.90;;;;;;5091172;28;20215;-76
2022/05/13 13:34:49;;;;;;;7.93;2.13;;;21.30;99.90;;;;;;5090837;28;20171;-77